Time;durP1;ratioP1;P1;durP2;ratioP2;P2;SDS_P1;SDS_P2;PMS_P1;PMS_P2;Temp;Humidity;BMP_temperature;BMP_pressure;BME280_temperature;BME280_humidity;BME280_pressure;Samples;Min_cycle;Max_cycle;Signal;HPM_P1;HPM_P2
2023/01/09 00:00:34;;;;;;;1.58;1.30;;;;;;;;;;5010898;28;20125;-76
2023/01/09 00:03:01;;;;;;;2.20;1.50;;;;;;;;;;5010817;28;20133;-77
2023/01/09 00:05:30;;;;;;;1.80;1.30;;;;;;;;;;5011484;28;20059;-77
2023/01/09 00:07:57;;;;;;;1.95;1.52;;;;;;;;;;5024444;28;20617;-77
2023/01/09 00:10:24;;;;;;;2.10;1.40;;;;;;;;;;5030744;28;20516;-77
2023/01/09 00:12:51;;;;;;;2.22;1.30;;;;;;;;;;5030508;28;20060;-77
2023/01/09 00:15:18;;;;;;;1.77;1.40;;;;;;;;;;5030783;28;20049;-77
2023/01/09 00:17:46;;;;;;;2.17;1.48;;;;;;;;;;5030648;28;20057;-77
2023/01/09 00:20:14;;;;;;;4.78;1.40;;;;;;;;;;5030276;28;20060;-77
2023/01/09 00:22:42;;;;;;;1.63;1.23;;;;;;;;;;5030613;28;20599;-76
2023/01/09 00:25:10;;;;;;;2.75;1.42;;;;;;;;;;5030498;28;20058;-77
2023/01/09 00:27:37;;;;;;;2.50;1.40;;;;;;;;;;5028161;28;20395;-77
2023/01/09 00:30:04;;;;;;;1.90;1.48;;;;;;;;;;5010802;28;20402;-77
2023/01/09 00:32:31;;;;;;;2.45;1.38;;;;;;;;;;5010466;28;20058;-76
2023/01/09 00:34:58;;;;;;;2.92;1.35;;;;;;;;;;5010739;28;20053;-77
2023/01/09 00:37:25;;;;;;;2.67;1.40;;;;;;;;;;5023578;28;20053;-77
2023/01/09 00:39:53;;;;;;;1.92;1.52;;;;;;;;;;5030349;28;20115;-77
2023/01/09 00:42:24;;;;;;;1.50;1.30;;;;;;;;;;5029745;28;20061;-77
2023/01/09 00:44:53;;;;;;;1.48;1.30;;;13.00;76.30;;;;;;5030469;28;20068;-77
2023/01/09 00:47:21;;;;;;;1.90;1.20;;;13.00;75.40;;;;;;5030184;28;20063;-77
2023/01/09 00:49:48;;;;;;;1.77;1.40;;;;;;;;;;5030492;28;20137;-77
2023/01/09 00:52:15;;;;;;;1.10;1.00;;;;;;;;;;5030315;28;20136;-77
2023/01/09 00:54:42;;;;;;;2.00;1.30;;;;;;;;;;5030188;28;20067;-77
2023/01/09 00:57:11;;;;;;;2.97;1.40;;;;;;;;;;5030392;28;20067;-77
2023/01/09 00:59:38;;;;;;;1.92;1.42;;;;;;;;;;5030304;28;20060;-76
2023/01/09 01:02:06;;;;;;;1.42;1.23;;;;;;;;;;5033995;28;20049;-77
2023/01/09 01:10:02;;;;;;;1.90;1.33;;;;;;;;;;5033566;28;20038;-76
2023/01/09 01:12:30;;;;;;;1.60;1.40;;;;;;;;;;5033764;28;20174;-77
2023/01/09 01:14:57;;;;;;;1.98;1.35;;;;;;;;;;5033807;28;20067;-77
2023/01/09 01:17:24;;;;;;;1.92;1.40;;;;;;;;;;5033717;28;20057;-76
2023/01/09 01:19:51;;;;;;;1.67;1.25;;;;;;;;;;5033598;28;20049;-77
2023/01/09 01:22:18;;;;;;;1.90;1.38;;;;;;;;;;5033531;28;20145;-76
2023/01/09 01:24:46;;;;;;;1.23;1.13;;;;;;;;;;5033759;28;20406;-77
2023/01/09 01:27:13;;;;;;;1.20;1.10;;;;;;;;;;5033499;28;20452;-77
2023/01/09 01:29:41;;;;;;;2.50;1.30;;;;;;;;;;5033519;28;20468;-77
2023/01/09 01:32:08;;;;;;;1.50;1.20;;;;;;;;;;5033542;28;20140;-76
2023/01/09 01:34:35;;;;;;;3.35;1.23;;;;;;;;;;5033425;28;20061;-77
2023/01/09 01:37:02;;;;;;;2.08;1.45;;;;;;;;;;5033268;28;20063;-76
2023/01/09 01:39:30;;;;;;;1.75;1.23;;;;;;;;;;5024753;28;20064;-77
2023/01/09 01:41:57;;;;;;;1.48;1.15;;;;;;;;;;5013620;28;20141;-76
2023/01/09 01:44:58;;;;;;;1.80;1.30;;;13.00;72.70;;;;;;5013277;28;20058;-77
2023/01/09 01:47:25;;;;;;;1.77;1.30;;;;;;;;;;5013596;28;20494;-77
2023/01/09 01:49:52;;;;;;;1.90;1.08;;;;;;;;;;5013275;28;20410;-77
2023/01/09 01:52:19;;;;;;;1.70;1.30;;;;;;;;;;5013361;28;20060;-76
2023/01/09 01:54:46;;;;;;;1.45;1.08;;;;;;;;;;5013469;28;20136;-76
2023/01/09 01:57:13;;;;;;;2.00;1.35;;;;;;;;;;5013092;28;20056;-76
2023/01/09 01:59:41;;;;;;;1.10;1.00;;;;;;;;;;5013094;28;20053;-76
2023/01/09 02:02:09;;;;;;;2.15;1.20;;;;;;;;;;5013048;28;20083;-77
2023/01/09 02:04:38;;;;;;;1.70;1.40;;;;;;;;;;5013007;28;20137;-77
2023/01/09 02:07:05;;;;;;;2.35;1.27;;;;;;;;;;5012936;28;20495;-76
2023/01/09 02:09:32;;;;;;;1.65;1.20;;;;;;;;;;5013079;28;20064;-77
2023/01/09 02:12:00;;;;;;;1.23;1.08;;;;;;;;;;5012606;28;20068;-77
2023/01/09 02:14:27;;;;;;;1.20;1.00;;;12.90;76.30;;;;;;5012546;28;20054;-77
2023/01/09 02:16:55;;;;;;;1.20;1.10;;;;;;;;;;5012988;28;20162;-77
2023/01/09 02:19:33;;;;;;;1.33;1.00;;;;;;;;;;5012663;28;20058;-76
2023/01/09 02:22:02;;;;;;;1.38;1.20;;;;;;;;;;5012909;28;20076;-76
2023/01/09 02:24:36;;;;;;;1.55;1.10;;;;;;;;;;5012592;28;20410;-76
2023/01/09 02:27:39;;;;;;;1.67;1.00;;;12.90;74.70;;;;;;5012817;28;20137;-77
2023/01/09 02:30:27;;;;;;;1.95;1.15;;;;;;;;;;5012550;28;20049;-77
2023/01/09 02:32:57;;;;;;;3.13;1.20;;;;;;;;;;5012646;28;20149;-77
2023/01/09 02:35:28;;;;;;;1.35;1.00;;;;;;;;;;5012491;28;20058;-76
2023/01/09 02:37:57;;;;;;;1.27;1.10;;;;;;;;;;5029687;28;20049;-76
2023/01/09 02:40:26;;;;;;;1.40;1.20;;;12.80;76.40;;;;;;5032021;28;20060;-76
2023/01/09 02:42:53;;;;;;;1.10;1.00;;;;;;;;;;5031978;28;20140;-77
2023/01/09 02:45:20;;;;;;;1.45;1.02;;;;;;;;;;5031871;28;20050;-76
2023/01/09 02:47:49;;;;;;;1.40;1.15;;;;;;;;;;5032006;28;20553;-76
2023/01/09 02:50:17;;;;;;;1.42;1.10;;;;;;;;;;5027320;28;20414;-76
2023/01/09 02:52:59;;;;;;;1.60;1.10;;;12.80;76.30;;;;;;5011694;28;20133;-77
2023/01/09 02:55:31;;;;;;;1.15;1.02;;;12.80;76.30;;;;;;5012276;28;20485;-77
2023/01/09 02:58:03;;;;;;;1.55;1.20;;;;;;;;;;5012261;28;20057;-76
2023/01/09 03:00:34;;;;;;;1.23;1.00;;;;;;;;;;5011712;28;20410;-77
2023/01/09 03:03:04;;;;;;;1.10;1.00;;;;;;;;;;5024992;28;20068;-76
2023/01/09 03:05:31;;;;;;;1.20;1.08;;;;;;;;;;5031576;28;20425;-77
2023/01/09 03:08:00;;;;;;;1.38;1.08;;;;;;;;;;5031790;28;20064;-77
2023/01/09 03:10:28;;;;;;;1.13;0.90;;;;;;;;;;5031245;28;20410;-76
2023/01/09 03:12:55;;;;;;;2.17;1.20;;;;;;;;;;5031523;28;20053;-77
2023/01/09 03:15:23;;;;;;;1.10;0.90;;;;;;;;;;5031434;28;20057;-77
2023/01/09 03:17:50;;;;;;;1.27;1.10;;;;;;;;;;5031484;28;20053;-76
2023/01/09 03:20:19;;;;;;;1.00;0.90;;;;;;;;;;5031387;28;20049;-77
2023/01/09 03:22:47;;;;;;;1.35;1.10;;;;;;;;;;5030490;28;20053;-77
2023/01/09 03:25:17;;;;;;;1.27;1.10;;;;;;;;;;5031435;28;20471;-77
2023/01/09 03:27:44;;;;;;;1.33;1.10;;;;;;;;;;5032357;28;20053;-77
2023/01/09 03:30:12;;;;;;;1.20;1.05;;;;;;;;;;5031159;28;20483;-76
2023/01/09 03:32:39;;;;;;;1.10;1.00;;;;;;;;;;5030656;28;20059;-77
2023/01/09 03:35:06;;;;;;;1.25;0.93;;;;;;;;;;5030965;28;20052;-76
2023/01/09 03:37:34;;;;;;;0.80;0.80;;;;;;;;;;5030847;28;20057;-76
2023/01/09 03:40:01;;;;;;;1.27;0.90;;;;;;;;;;5030805;28;20418;-77
2023/01/09 03:42:28;;;;;;;1.40;1.10;;;;;;;;;;5030954;28;20398;-76
2023/01/09 03:44:55;;;;;;;1.73;1.17;;;;;;;;;;5030813;28;20417;-77
2023/01/09 03:47:23;;;;;;;1.00;0.90;;;;;;;;;;5031183;28;20080;-76
2023/01/09 03:49:50;;;;;;;1.10;0.90;;;;;;;;;;5030879;28;20414;-77
2023/01/09 03:52:17;;;;;;;1.10;0.90;;;;;;;;;;5031031;28;20513;-77
2023/01/09 03:54:45;;;;;;;1.00;0.90;;;;;;;;;;5031040;28;20059;-77
2023/01/09 03:57:12;;;;;;;1.27;1.13;;;;;;;;;;5030945;28;20413;-76
2023/01/09 03:59:39;;;;;;;1.42;1.00;;;;;;;;;;5025214;28;20560;-76
2023/01/09 04:02:06;;;;;;;2.25;0.88;;;;;;;;;;5011122;28;20069;-77
2023/01/09 04:04:33;;;;;;;1.20;1.00;;;;;;;;;;5011239;28;20129;-76
2023/01/09 04:07:00;;;;;;;1.45;1.10;;;;;;;;;;5011153;28;20054;-77
2023/01/09 04:09:27;;;;;;;1.20;1.02;;;;;;;;;;5030874;28;20059;-76
2023/01/09 04:11:56;;;;;;;1.42;1.00;;;;;;;;;;5030930;28;20048;-77
2023/01/09 04:14:23;;;;;;;1.23;1.00;;;;;;;;;;5030634;28;20136;-76
2023/01/09 04:16:50;;;;;;;1.02;0.93;;;;;;;;;;5018431;28;20547;-77
2023/01/09 04:19:17;;;;;;;1.45;1.00;;;;;;;;;;5010950;28;20136;-76
2023/01/09 04:21:44;;;;;;;1.10;0.90;;;;;;;;;;5010806;28;20050;-77
2023/01/09 04:24:11;;;;;;;1.80;1.02;;;;;;;;;;5010547;28;20050;-77
2023/01/09 04:26:38;;;;;;;0.80;0.80;;;;;;;;;;5012078;28;20054;-76
2023/01/09 04:29:07;;;;;;;1.35;1.20;;;;;;;;;;5010982;28;20057;-77
2023/01/09 04:31:34;;;;;;;1.10;0.90;;;;;;;;;;5010785;28;20054;-76
2023/01/09 04:34:01;;;;;;;0.90;0.80;;;;;;;;;;5012022;28;20057;-77
2023/01/09 04:36:28;;;;;;;1.02;0.80;;;;;;;;;;5019644;28;20081;-76
2023/01/09 04:38:55;;;;;;;1.15;1.00;;;;;;;;;;5034270;28;20136;-77
2023/01/09 04:44:08;;;;;;;1.30;1.10;;;;;;;;;;5034481;28;20089;-77
2023/01/09 04:46:35;;;;;;;1.27;1.00;;;;;;;;;;5034274;28;20064;-76
2023/01/09 04:49:02;;;;;;;0.90;0.90;;;;;;;;;;5034278;28;20057;-76
2023/01/09 04:51:29;;;;;;;2.53;1.00;;;;;;;;;;5034328;28;20045;-77
2023/01/09 04:53:56;;;;;;;1.02;0.90;;;;;;;;;;5033983;28;20057;-76
2023/01/09 04:56:23;;;;;;;1.58;1.00;;;;;;;;;;5034321;28;20379;-77
2023/01/09 04:58:51;;;;;;;1.15;1.00;;;;;;;;;;5034023;28;20164;-77
2023/01/09 05:01:19;;;;;;;1.20;0.90;;;;;;;;;;5034021;28;20140;-77
2023/01/09 05:03:47;;;;;;;1.27;1.00;;;;;;;;;;5033929;28;20126;-76
2023/01/09 05:06:14;;;;;;;0.82;0.80;;;;;;;;;;5033989;28;20061;-77
2023/01/09 05:08:41;;;;;;;1.42;1.00;;;;;;;;;;5033951;28;20080;-76
2023/01/09 05:11:08;;;;;;;1.15;1.00;;;;;;;;;;5033898;28;20406;-77
2023/01/09 05:13:35;;;;;;;1.00;0.90;;;;;;;;;;5031094;28;20471;-77
2023/01/09 05:16:02;;;;;;;1.10;0.90;;;;;;;;;;5014053;28;20392;-77
2023/01/09 05:18:30;;;;;;;1.58;1.10;;;;;;;;;;5014176;28;20426;-76
2023/01/09 05:20:57;;;;;;;1.65;1.00;;;;;;;;;;5013699;28;20060;-76
2023/01/09 05:23:24;;;;;;;1.00;0.90;;;;;;;;;;5013843;28;20080;-76
2023/01/09 05:25:51;;;;;;;1.38;1.00;;;;;;;;;;5013993;28;20057;-76
2023/01/09 05:28:18;;;;;;;1.00;0.90;;;;;;;;;;5013481;28;20406;-77
2023/01/09 05:30:45;;;;;;;1.08;0.95;;;;;;;;;;5013761;28;20080;-76
2023/01/09 05:33:12;;;;;;;1.35;0.95;;;;;;;;;;5013553;28;20407;-77
2023/01/09 05:35:41;;;;;;;1.17;1.08;;;;;;;;;;5013778;28;20456;-76
2023/01/09 05:38:08;;;;;;;1.20;1.00;;;;;;;;;;5032394;28;20087;-76
2023/01/09 05:40:35;;;;;;;1.10;1.00;;;;;;;;;;5033277;28;20076;-76
2023/01/09 05:43:02;;;;;;;1.10;1.00;;;;;;;;;;5033219;28;20049;-77
2023/01/09 05:45:29;;;;;;;1.00;1.00;;;;;;;;;;5031993;28;20418;-76
2023/01/09 05:47:56;;;;;;;1.13;1.00;;;;;;;;;;5033374;28;20486;-77
2023/01/09 05:50:23;;;;;;;1.70;1.00;;;;;;;;;;5032806;28;20474;-76
2023/01/09 05:52:51;;;;;;;1.70;1.15;;;;;;;;;;5033191;28;20456;-76
2023/01/09 05:55:19;;;;;;;1.10;1.00;;;;;;;;;;5033019;28;20087;-76
2023/01/09 05:57:46;;;;;;;1.58;1.33;;;;;;;;;;5033179;28;20084;-77
2023/01/09 06:00:13;;;;;;;1.10;1.00;;;;;;;;;;5023138;28;20049;-76
2023/01/09 06:02:40;;;;;;;1.20;1.10;;;;;;;;;;5012706;28;20046;-76
2023/01/09 06:05:08;;;;;;;1.40;1.05;;;;;;;;;;5013215;28;20056;-76
2023/01/09 06:07:38;;;;;;;2.50;1.15;;;;;;;;;;5012989;28;20141;-77
2023/01/09 06:10:07;;;;;;;1.70;1.13;;;;;;;;;;5012889;28;20104;-77
2023/01/09 06:12:35;;;;;;;1.38;1.05;;;;;;;;;;5012862;28;20046;-76
2023/01/09 06:15:02;;;;;;;1.70;1.20;;;;;;;;;;5012957;28;20141;-77
2023/01/09 06:17:29;;;;;;;1.10;1.00;;;;;;;;;;5013111;28;20058;-77
2023/01/09 06:19:56;;;;;;;2.25;1.17;;;;;;;;;;5012718;28;20499;-77
2023/01/09 06:22:23;;;;;;;2.42;1.13;;;;;;;;;;5012548;28;20046;-76
2023/01/09 06:24:50;;;;;;;1.15;1.05;;;;;;;;;;5012714;28;20089;-77
2023/01/09 06:27:18;;;;;;;2.13;1.10;;;;;;;;;;5012821;28;20424;-76
2023/01/09 06:29:45;;;;;;;1.40;1.00;;;;;;;;;;5012543;28;20054;-76
2023/01/09 06:32:12;;;;;;;1.45;1.10;;;;;;;;;;5012628;28;20076;-76
2023/01/09 06:34:39;;;;;;;1.10;1.00;;;;;;;;;;5012704;28;20057;-76
2023/01/09 06:37:07;;;;;;;1.10;1.00;;;;;;;;;;5022936;28;20132;-76
2023/01/09 06:39:34;;;;;;;2.10;1.25;;;;;;;;;;5032375;28;20737;-77
2023/01/09 06:42:01;;;;;;;1.80;1.20;;;;;;;;;;5031874;28;20502;-75
2023/01/09 06:44:29;;;;;;;1.45;1.10;;;;;;;;;;5032086;28;20053;-76
2023/01/09 06:46:56;;;;;;;1.35;1.10;;;;;;;;;;5032909;28;20462;-77
2023/01/09 06:49:23;;;;;;;1.48;1.10;;;;;;;;;;5032106;28;20438;-76
2023/01/09 06:51:50;;;;;;;1.38;1.20;;;;;;;;;;5032048;28;20414;-77
2023/01/09 06:54:18;;;;;;;2.03;1.20;;;;;;;;;;5031622;28;20057;-76
2023/01/09 06:56:45;;;;;;;1.30;1.20;;;;;;;;;;5031900;28;20557;-76
2023/01/09 06:59:12;;;;;;;3.38;1.40;;;;;;;;;;5019976;28;20581;-76
2023/01/09 07:01:40;;;;;;;1.50;1.17;;;;;;;;;;5012035;28;20509;-77
2023/01/09 07:04:08;;;;;;;1.48;1.17;;;;;;;;;;5011517;28;20422;-76
2023/01/09 07:06:35;;;;;;;1.95;1.30;;;;;;;;;;5012088;28;20053;-77
2023/01/09 07:09:03;;;;;;;1.38;1.17;;;;;;;;;;5011891;28;20058;-76
2023/01/09 07:11:30;;;;;;;1.75;1.10;;;;;;;;;;5011708;28;20056;-77
2023/01/09 07:13:57;;;;;;;1.33;1.08;;;;;;;;;;5011578;28;20064;-77
2023/01/09 07:16:25;;;;;;;1.10;1.00;;;;;;;;;;5023521;28;20045;-76
2023/01/09 07:18:53;;;;;;;1.50;1.20;;;;;;;;;;5014236;28;20495;-76
2023/01/09 07:21:20;;;;;;;1.40;1.10;;;;;;;;;;5031378;28;20076;-76
2023/01/09 07:23:47;;;;;;;1.40;1.02;;;;;;;;;;5031326;28;20079;-76
2023/01/09 07:26:14;;;;;;;1.10;1.00;;;;;;;;;;5031161;28;20413;-76
2023/01/09 07:28:41;;;;;;;1.60;1.23;;;;;;;;;;5031319;28;20517;-77
2023/01/09 07:31:08;;;;;;;1.52;1.13;;;;;;;;;;5016193;28;20491;-76
2023/01/09 07:33:36;;;;;;;1.20;1.10;;;;;;;;;;5011173;28;20480;-77
2023/01/09 07:36:04;;;;;;;1.38;1.20;;;;;;;;;;5013400;28;20057;-76
2023/01/09 07:38:31;;;;;;;2.33;1.00;;;;;;;;;;5030805;28;20132;-76
2023/01/09 07:40:58;;;;;;;1.40;1.20;;;;;;;;;;5031306;28;20406;-76
2023/01/09 07:43:26;;;;;;;2.03;1.30;;;;;;;;;;5030913;28;20639;-76
2023/01/09 07:45:53;;;;;;;1.75;1.10;;;;;;;;;;5031049;28;20482;-76
2023/01/09 07:48:20;;;;;;;1.65;1.23;;;;;;;;;;5021610;28;20410;-77
2023/01/09 07:50:47;;;;;;;1.13;1.00;;;;;;;;;;5016331;28;20494;-77
2023/01/09 07:53:15;;;;;;;1.77;1.10;;;;;;;;;;5011173;28;20504;-77
2023/01/09 07:55:43;;;;;;;0.93;0.90;;;;;;;;;;5012263;28;20058;-77
2023/01/09 07:58:10;;;;;;;1.40;1.20;;;;;;;;;;5011354;28;20495;-77
2023/01/09 08:00:37;;;;;;;1.75;1.10;;;;;;;;;;5011112;28;20418;-78
2023/01/09 08:03:04;;;;;;;1.38;0.95;;;;;;;;;;5012560;28;20073;-77
2023/01/09 08:05:31;;;;;;;1.75;1.10;;;;;;;;;;5021285;28;20056;-76
2023/01/09 08:07:58;;;;;;;1.40;1.10;;;;;;;;;;5024477;28;20059;-76
2023/01/09 08:10:27;;;;;;;2.13;1.23;;;;;;;;;;5037139;28;20136;-76
2023/01/09 08:12:54;;;;;;;1.67;1.05;;;;;;;;;;5037113;28;20053;-77
2023/01/09 08:15:21;;;;;;;1.50;1.00;;;;;;;;;;5037615;28;20053;-76
2023/01/09 08:17:48;;;;;;;2.35;1.00;;;;;;;;;;5037194;28;20053;-76
2023/01/09 08:20:15;;;;;;;1.73;1.10;;;;;;;;;;5032040;28;20065;-77
2023/01/09 08:22:42;;;;;;;1.15;1.05;;;;;;;;;;5036890;28;20136;-76
2023/01/09 08:25:10;;;;;;;1.73;1.20;;;;;;;;;;5037406;28;20064;-77
2023/01/09 08:27:38;;;;;;;1.58;1.00;;;;;;;;;;5038425;28;20049;-76
2023/01/09 08:30:05;;;;;;;1.75;1.10;;;;;;;;;;5037105;28;20702;-76
2023/01/09 08:32:33;;;;;;;1.52;1.10;;;;;;;;;;5036835;28;20060;-76
2023/01/09 08:35:00;;;;;;;1.73;1.10;;;;;;;;;;5037154;28;20053;-77
2023/01/09 08:37:27;;;;;;;1.73;1.10;;;;;;;;;;5036856;28;20053;-76
2023/01/09 08:39:54;;;;;;;2.80;1.20;;;;;;;;;;5027278;28;20057;-77
2023/01/09 08:47:52;;;;;;;2.33;1.00;;;;;;;;;;5025061;28;20490;-77
2023/01/09 08:50:19;;;;;;;1.60;1.10;;;;;;;;;;5022818;28;20081;-76
2023/01/09 08:52:46;;;;;;;3.47;1.13;;;;;;;;;;5016943;28;20133;-77
2023/01/09 08:55:14;;;;;;;2.38;1.05;;;;;;;;;;5029324;28;20107;-76
2023/01/09 08:57:47;;;;;;;2.60;1.20;;;;;;;;;;5036862;28;20059;-76
2023/01/09 09:00:16;;;;;;;1.95;1.02;;;;;;;;;;5037339;28;20053;-77
2023/01/09 09:02:43;;;;;;;1.52;1.05;;;;;;;;;;5036122;28;20041;-76
2023/01/09 09:05:10;;;;;;;2.22;1.13;;;;;;;;;;5020933;28;20064;-76
2023/01/09 09:07:38;;;;;;;1.83;1.00;;;;;;;;;;5022942;28;20052;-75
2023/01/09 09:10:05;;;;;;;1.77;1.08;;;;;;;;;;5017076;28;20137;-76
2023/01/09 09:12:32;;;;;;;2.20;1.02;;;;;;;;;;5016825;28;20089;-75
2023/01/09 09:15:19;;;;;;;1.20;1.00;;;;;;;;;;5028346;28;20053;-75
2023/01/09 09:17:49;;;;;;;2.25;0.90;;;13.80;73.80;;;;;;5036611;28;20068;-75
2023/01/09 09:20:16;;;;;;;1.85;1.00;;;;;;;;;;5034762;28;20143;-76
2023/01/09 09:22:43;;;;;;;3.40;1.58;;;;;;;;;;5029162;28;20073;-76
2023/01/09 09:25:10;;;;;;;1.45;1.10;;;;;;;;;;5033287;28;20060;-75
2023/01/09 09:27:37;;;;;;;1.48;0.93;;;;;;;;;;5029582;28;20092;-75
2023/01/09 09:30:04;;;;;;;1.63;1.00;;;;;;;;;;5013649;28;20060;-75
2023/01/09 09:32:31;;;;;;;1.48;1.10;;;;;;;;;;5013642;28;20049;-75
2023/01/09 09:35:00;;;;;;;1.27;1.08;;;;;;;;;;5013321;28;20054;-75
2023/01/09 09:37:27;;;;;;;2.70;1.27;;;;;;;;;;5014863;28;20064;-75
2023/01/09 09:39:54;;;;;;;1.63;1.10;;;;;;;;;;5019354;28;20060;-75
2023/01/09 09:45:18;;;;;;;2.38;1.00;;;;;;;;;;5012420;28;20136;-75
2023/01/09 09:47:49;;;;;;;1.38;0.80;;;;;;;;;;5012058;28;20060;-75
2023/01/09 09:50:38;;;;;;;2.30;1.15;;;;;;;;;;5013808;28;20081;-75
2023/01/09 09:53:07;;;;;;;1.48;1.05;;;;;;;;;;5026538;28;20057;-75
2023/01/09 09:55:35;;;;;;;1.80;1.20;;;;;;;;;;5032180;28;20053;-75
2023/01/09 09:58:03;;;;;;;2.45;1.13;;;14.00;72.60;;;;;;5032021;28;20050;-75
2023/01/09 10:00:31;;;;;;;3.67;1.42;;;;;;;;;;5032475;28;20053;-75
2023/01/09 10:02:59;;;;;;;8.32;1.60;;;;;;;;;;5032429;28;20075;-75
2023/01/09 10:05:27;;;;;;;5.28;1.30;;;14.00;73.70;;;;;;5033112;28;20091;-75
2023/01/09 10:07:55;;;;;;;3.17;1.35;;;;;;;;;;5031005;28;20061;-75
2023/01/09 10:10:25;;;;;;;3.90;1.55;;;14.10;72.30;;;;;;5032611;28;20052;-74
2023/01/09 10:12:54;;;;;;;4.38;1.55;;;14.10;73.10;;;;;;5032598;28;20053;-75
2023/01/09 10:15:27;;;;;;;4.78;1.30;;;14.10;74.20;;;;;;5032529;28;20132;-75
2023/01/09 10:17:56;;;;;;;4.65;1.45;;;;;;;;;;5032298;28;20060;-75
2023/01/09 10:20:41;;;;;;;3.92;1.33;;;14.20;73.90;;;;;;5032662;28;20061;-75
2023/01/09 10:23:14;;;;;;;4.38;1.45;;;;;;;;;;5032126;28;20063;-75
2023/01/09 10:25:44;;;;;;;2.90;1.30;;;14.10;73.90;;;;;;5033744;28;20045;-75
2023/01/09 10:28:16;;;;;;;5.47;1.65;;;;;;;;;;5032580;28;20135;-75
2023/01/09 10:30:45;;;;;;;4.30;1.38;;;;;;;;;;5047802;28;20057;-75
2023/01/09 10:33:16;;;;;;;3.08;1.45;;;;;;;;;;5031945;28;20065;-75
2023/01/09 10:36:07;;;;;;;5.03;1.60;;;14.10;74.20;;;;;;5023740;28;20104;-75
2023/01/09 10:38:36;;;;;;;4.55;1.40;;;;;;;;;;5012553;28;20137;-75
2023/01/09 10:41:05;;;;;;;4.75;1.48;;;;;;;;;;5012164;28;20135;-75
2023/01/09 10:43:34;;;;;;;3.35;1.40;;;14.20;74.10;;;;;;5012059;28;20050;-76
2023/01/09 10:46:03;;;;;;;4.40;1.73;;;14.20;72.00;;;;;;5011869;28;20077;-75
2023/01/09 10:48:32;;;;;;;6.03;1.73;;;14.20;72.00;;;;;;5017702;28;20054;-75
2023/01/09 10:50:59;;;;;;;5.00;1.63;;;;;;;;;;5022412;28;20050;-75
2023/01/09 10:53:27;;;;;;;5.05;1.40;;;;;;;;;;5022679;28;20072;-75
2023/01/09 10:55:56;;;;;;;4.05;1.60;;;;;;;;;;5020664;28;20052;-75
2023/01/09 10:58:24;;;;;;;3.05;1.63;;;;;;;;;;5020924;28;20054;-75
2023/01/09 11:00:51;;;;;;;3.85;1.60;;;;;;;;;;5022344;28;20053;-75
2023/01/09 11:03:19;;;;;;;3.45;1.30;;;14.30;73.90;;;;;;5020738;28;20129;-75
2023/01/09 11:05:48;;;;;;;2.95;1.45;;;;;;;;;;5020854;28;20059;-75
2023/01/09 11:08:21;;;;;;;4.70;1.70;;;14.30;73.90;;;;;;5021987;28;20133;-77
2023/01/09 11:10:49;;;;;;;5.05;1.63;;;14.20;73.80;;;;;;5022291;28;20136;-75
2023/01/09 11:13:20;;;;;;;5.13;1.40;;;;;;;;;;5020394;28;20045;-75
2023/01/09 11:15:47;;;;;;;3.45;1.30;;;;;;;;;;5020248;28;20410;-75
2023/01/09 11:18:18;;;;;;;3.28;1.20;;;;;;;;;;5021528;28;20084;-75
2023/01/09 11:20:45;;;;;;;2.65;1.30;;;;;;;;;;5022164;28;20115;-75
2023/01/09 11:23:25;;;;;;;3.13;1.30;;;;;;;;;;5025210;28;20129;-75
2023/01/09 11:25:52;;;;;;;5.32;1.50;;;;;;;;;;5032217;28;20056;-76
2023/01/09 11:28:21;;;;;;;2.78;1.42;;;;;;;;;;5030722;28;20052;-75
2023/01/09 11:30:52;;;;;;;2.67;1.40;;;;;;;;;;5031181;28;20071;-75
2023/01/09 11:33:21;;;;;;;2.60;1.40;;;;;;;;;;5030878;28;20064;-75
2023/01/09 11:36:12;;;;;;;2.97;1.40;;;;;;;;;;5030413;28;20111;-75
2023/01/09 11:38:46;;;;;;;4.22;1.45;;;;;;;;;;5016271;28;20056;-75
2023/01/09 11:41:16;;;;;;;4.38;1.67;;;;;;;;;;5030918;28;20128;-75
2023/01/09 11:43:45;;;;;;;3.00;1.40;;;;;;;;;;5029837;28;20053;-76
2023/01/09 11:46:12;;;;;;;2.70;1.50;;;;;;;;;;5030269;28;20140;-76
2023/01/09 11:48:40;;;;;;;3.83;1.50;;;;;;;;;;5021203;28;20141;-76
2023/01/09 11:51:19;;;;;;;3.05;1.33;;;14.30;74.70;;;;;;5019212;28;20060;-76
2023/01/09 11:53:49;;;;;;;4.45;1.50;;;;;;;;;;5010974;28;20076;-76
2023/01/09 11:56:16;;;;;;;4.47;1.63;;;;;;;;;;5011295;28;20049;-76
2023/01/09 11:58:44;;;;;;;5.80;1.40;;;;;;;;;;5025588;28;20057;-76
2023/01/09 12:01:15;;;;;;;6.35;1.77;;;;;;;;;;5025783;28;20052;-76
2023/01/09 12:03:54;;;;;;;5.38;1.30;;;14.10;74.60;;;;;;5022165;28;20072;-76
2023/01/09 12:06:23;;;;;;;4.30;1.23;;;;;;;;;;5030492;28;20045;-76
2023/01/09 12:08:53;;;;;;;3.88;1.42;;;;;;;;;;5030646;28;20500;-76
2023/01/09 12:11:22;;;;;;;6.03;1.63;;;;;;;;;;5030544;28;20487;-78
2023/01/09 12:13:54;;;;;;;5.82;1.60;;;;;;;;;;5028657;28;20132;-75
2023/01/09 12:16:23;;;;;;;4.70;1.50;;;;;;;;;;5011766;28;20132;-75
2023/01/09 12:18:54;;;;;;;4.10;1.40;;;;;;;;;;5013166;28;20064;-75
2023/01/09 12:21:25;;;;;;;3.55;1.45;;;;;;;;;;5030380;28;20479;-75
2023/01/09 12:23:56;;;;;;;3.35;1.30;;;;;;;;;;5024853;28;20054;-75
2023/01/09 12:26:24;;;;;;;2.17;1.20;;;;;;;;;;5021707;28;20053;-75
2023/01/09 12:29:10;;;;;;;2.50;1.20;;;14.00;74.80;;;;;;5030053;28;20132;-75
2023/01/09 12:31:43;;;;;;;1.98;1.20;;;13.90;74.80;;;;;;5021975;28;20060;-75
2023/01/09 12:34:24;;;;;;;3.20;1.30;;;13.90;74.80;;;;;;5010736;28;20064;-75
2023/01/09 12:36:53;;;;;;;3.88;1.20;;;13.90;73.40;;;;;;5019127;28;20085;-75
2023/01/09 12:39:25;;;;;;;3.30;1.10;;;13.90;74.80;;;;;;5030436;28;20088;-75
2023/01/09 12:42:19;;;;;;;2.38;1.30;;;13.90;74.90;;;;;;5027237;28;20082;-75
2023/01/09 12:44:51;;;;;;;3.72;1.33;;;;;;;;;;4997784;28;20063;-75
2023/01/09 12:47:38;;;;;;;2.50;1.27;;;13.90;74.80;;;;;;5020722;28;20050;-75
2023/01/09 12:50:09;;;;;;;2.78;1.20;;;;;;;;;;5020213;28;20053;-75
2023/01/09 12:52:36;;;;;;;2.75;1.23;;;;;;;;;;5022950;28;20414;-75
2023/01/09 12:55:04;;;;;;;2.28;1.05;;;;;;;;;;5023323;28;20077;-75
2023/01/09 12:57:31;;;;;;;2.08;1.10;;;;;;;;;;5023255;28;20132;-76
2023/01/09 13:00:01;;;;;;;2.42;1.05;;;;;;;;;;5033917;28;20057;-75
2023/01/09 13:02:31;;;;;;;2.75;1.10;;;;;;;;;;5033437;28;20053;-77
2023/01/09 13:04:58;;;;;;;3.10;1.23;;;;;;;;;;5033602;28;20135;-76
2023/01/09 13:07:27;;;;;;;3.17;1.13;;;13.90;74.90;;;;;;5033956;28;20057;-76
2023/01/09 13:09:54;;;;;;;5.13;1.50;;;;;;;;;;5033444;28;20057;-76
2023/01/09 13:12:21;;;;;;;3.00;1.50;;;;;;;;;;5033771;28;20493;-76
2023/01/09 13:14:52;;;;;;;2.13;1.40;;;13.90;75.00;;;;;;5033547;28;20136;-76
2023/01/09 13:17:23;;;;;;;3.42;1.20;;;14.00;75.10;;;;;;5033675;28;20514;-76
2023/01/09 13:19:52;;;;;;;2.78;1.20;;;;;;;;;;5030223;28;20138;-76
2023/01/09 13:22:19;;;;;;;2.78;1.23;;;;;;;;;;5013141;28;20388;-76
2023/01/09 13:25:03;;;;;;;1.40;1.10;;;14.00;75.10;;;;;;5013676;28;20073;-75
2023/01/09 13:27:32;;;;;;;2.45;1.10;;;;;;;;;;5014851;28;20076;-76
2023/01/09 13:30:01;;;;;;;3.13;1.17;;;14.00;75.20;;;;;;5013884;28;20064;-76
2023/01/09 13:32:41;;;;;;;3.25;1.20;;;13.90;73.20;;;;;;5015466;28;20058;-76
2023/01/09 13:35:11;;;;;;;4.55;1.10;;;;;;;;;;5033385;28;20061;-77
2023/01/09 13:37:38;;;;;;;2.20;1.20;;;;;;;;;;5032684;28;20129;-77
2023/01/09 13:40:06;;;;;;;3.65;1.20;;;;;;;;;;5034054;28;20060;-77
2023/01/09 13:42:37;;;;;;;4.18;1.00;;;;;;;;;;5033954;28;20057;-77
2023/01/09 13:45:12;;;;;;;1.60;1.08;;;;;;;;;;5033380;28;20495;-76
2023/01/09 13:47:40;;;;;;;3.85;1.08;;;;;;;;;;5015135;28;20457;-76
2023/01/09 13:50:24;;;;;;;8.60;1.20;;;;;;;;;;5023851;28;20050;-76
2023/01/09 13:52:51;;;;;;;4.38;1.20;;;;;;;;;;5030029;28;20053;-77
2023/01/09 13:55:28;;;;;;;2.53;1.20;;;;;;;;;;5032669;28;20132;-77
2023/01/09 13:58:17;;;;;;;3.97;1.20;;;;;;;;;;5033238;28;20053;-76
2023/01/09 14:00:48;;;;;;;1.80;0.90;;;;;;;;;;5032641;28;20484;-75
2023/01/09 14:03:21;;;;;;;1.58;1.20;;;;;;;;;;5032131;28;20046;-76
2023/01/09 14:06:04;;;;;;;2.40;1.20;;;;;;;;;;5033035;28;20140;-76
2023/01/09 14:08:31;;;;;;;3.92;1.20;;;;;;;;;;5032300;28;20490;-75
2023/01/09 14:10:59;;;;;;;4.10;1.30;;;;;;;;;;5033604;28;20483;-75
2023/01/09 14:13:27;;;;;;;3.03;1.25;;;;;;;;;;5032030;28;20501;-75
2023/01/09 14:16:01;;;;;;;3.70;1.20;;;;;;;;;;5028537;28;20479;-75
2023/01/09 14:18:31;;;;;;;5.88;1.17;;;14.00;75.00;;;;;;5012480;28;20050;-76
2023/01/09 14:20:58;;;;;;;2.08;1.10;;;;;;;;;;5012940;28;20133;-75
2023/01/09 14:23:26;;;;;;;3.15;1.17;;;;;;;;;;5012352;28;20415;-75
2023/01/09 14:25:53;;;;;;;2.88;1.20;;;;;;;;;;5012927;28;20054;-75
2023/01/09 14:28:20;;;;;;;1.73;1.20;;;;;;;;;;5012248;28;20050;-76
2023/01/09 14:31:04;;;;;;;1.63;1.10;;;;;;;;;;5027492;28;20642;-76
2023/01/09 14:33:34;;;;;;;1.60;0.98;;;;;;;;;;5019677;28;20137;-76
2023/01/09 14:36:13;;;;;;;3.28;1.17;;;14.00;75.00;;;;;;5014181;28;20411;-76
2023/01/09 14:38:42;;;;;;;3.40;2.17;;;;;;;;;;5032221;28;20056;-77
2023/01/09 14:41:10;;;;;;;3.55;1.60;;;;;;;;;;5032019;28;20491;-76
2023/01/09 14:43:48;;;;;;;4.07;1.50;;;14.10;75.30;;;;;;5031709;28;20053;-76
2023/01/09 14:46:15;;;;;;;2.72;1.50;;;;;;;;;;5032054;28;20060;-76
2023/01/09 14:48:57;;;;;;;5.50;1.48;;;14.20;75.30;;;;;;5031259;28;20089;-75
2023/01/09 14:51:24;;;;;;;4.35;1.60;;;;;;;;;;5032040;28;20409;-76
2023/01/09 14:53:51;;;;;;;4.28;1.27;;;;;;;;;;5032719;28;20136;-76
2023/01/09 14:56:25;;;;;;;3.97;1.88;;;;;;;;;;5031890;28;20057;-76